EW9921 Weather Reports


time (UTC)temp
C
wind
direction
speed
KPH
gust
KPH
rain 1hr
cm
rain 24hr
cm
rain mn
cm
humidity
%
barometer
mb
20200229070815 15 0.0 0.0 0.00 0.00 0.00 90 1016.7
20200229065816 15 0.0 0.0 0.00 0.00 0.00 89 1016.5
20200229064816 15 135 1.6 3.2 0.00 0.00 0.00 89 1016.4
20200229063816 15 0.0 1.6 0.00 0.00 0.00 88 1016.4
20200229062816 15 0.0 0.0 0.00 0.00 0.00 88 1016.6
20200229061816 15 0.0 0.0 0.00 0.00 0.00 87 1016.7
20200229060816 16 0.0 0.0 0.00 0.00 0.00 87 1016.7
20200229055816 16 0.0 0.0 0.00 0.00 0.00 86 1016.7
20200229054816 16 0.0 0.0 0.00 0.00 0.00 86 1016.8
20200229053816 16 0.0 0.0 0.00 0.00 0.00 85 1016.7
20200229052816 16 0.0 0.0 0.00 0.00 0.00 85 1016.5
20200229051816 16 0.0 0.0 0.00 0.00 0.00 85 1016.4
20200229050816 16 0.0 0.0 0.00 0.00 0.00 84 1016.4
20200229045816 17 0.0 0.0 0.00 0.00 0.00 82 1016.4
20200229044816 17 225 1.6 3.2 0.00 0.00 0.00 81 1016.5
20200229043816 17 0.0 1.6 0.00 0.00 0.00 81 1016.4
20200229042832 18 0.0 1.6 0.00 0.00 0.00 81 1016.4
20200229041816 18 0.0 1.6 0.00 0.00 0.00 80 1016.5
20200229040816 18 0.0 0.0 0.00 0.00 0.00 80 1016.4
20200229035825 18 0.0 1.6 0.00 0.00 0.00 79 1016.4
20200229034816 18 315 1.6 3.2 0.00 0.00 0.00 78 1016.4
20200229033816 18 315 1.6 3.2 0.00 0.00 0.00 76 1016.5
20200229032824 19 315 1.6 3.2 0.00 0.00 0.00 75 1016.5
20200229031815 19 315 1.6 1.6 0.00 0.00 0.00 73 1016.5
20200229030816 20 0 4.8 6.4 0.00 0.00 0.00 72 1016.6
20200229025820 20 0 4.8 6.4 0.00 0.00 0.00 72 1016.4
20200229024815 20 0 4.8 8.0 0.00 0.00 0.00 71 1016.2
20200229023816 20 315 3.2 4.8 0.00 0.00 0.00 70 1016.0
20200229022818 20 0 3.2 4.8 0.00 0.00 0.00 68 1015.9
20200229021816 20 0 3.2 3.2 0.00 0.00 0.00 67 1015.8
20200229020815 21 315 4.8 6.4 0.00 0.00 0.00 67 1015.7
20200229015827 21 315 4.8 6.4 0.00 0.00 0.00 65 1015.7
20200229014816 21 292 4.8 6.4 0.00 0.00 0.00 64 1015.7
20200229013815 21 292 4.8 6.4 0.00 0.00 0.00 63 1015.6
20200229012819 22 292 4.8 6.4 0.00 0.00 0.00 62 1015.7
20200229011815 22 292 4.8 9.7 0.00 0.00 0.00 62 1015.6
20200229010815 23 292 3.2 4.8 0.00 0.00 0.00 60 1015.5
20200229005815 23 292 4.8 6.4 0.00 0.00 0.00 59 1015.3
20200229004815 23 292 6.4 9.7 0.00 0.00 0.00 58 1015.2
20200229003816 24 0 4.8 6.4 0.00 0.00 0.00 58 1015.2
20200229002815 25 0 6.4 8.0 0.00 0.00 0.00 57 1015.0
20200229001815 25 0 6.4 9.7 0.00 0.00 0.00 54 1014.9
20200229000816 26 0 6.4 12.9 0.00 0.00 0.00 53 1014.9
20200228235815 26 270 11.3 17.7 0.00 0.00 0.00 55 1014.8
20200228234815 27 292 8.0 11.3 0.00 0.00 0.00 54 1014.8
20200228233823 27 270 9.7 12.9 0.00 0.00 0.00 52 1014.6
20200228232815 28 247 11.3 14.5 0.00 0.00 0.00 51 1014.4
20200228231815 28 270 9.7 12.9 0.00 0.00 0.00 51 1014.4
20200228230815 28 270 11.3 16.1 0.00 0.00 0.00 51 1014.4
20200228225815 29 247 6.4 11.3 0.00 0.00 0.00 50 1014.4
20200228224816 29 270 8.0 11.3 0.00 0.00 0.00 50 1014.2
20200228223815 30 270 3.2 6.4 0.00 0.00 0.00 49 1014.2
20200228222815 30 270 4.8 9.7 0.00 0.00 0.00 49 1014.0
20200228221817 30 270 8.0 14.5 0.00 0.00 0.00 50 1014.2
20200228220817 30 247 8.0 14.5 0.00 0.00 0.00 51 1014.2
20200228215816 30 247 4.8 6.4 0.00 0.00 0.00 52 1014.3
20200228214817 30 270 8.0 12.9 0.00 0.00 0.00 52 1014.4
20200228213817 30 247 3.2 6.4 0.00 0.00 0.00 53 1014.5
20200228212818 30 315 4.8 8.0 0.00 0.00 0.00 53 1014.7
20200228211817 30 270 4.8 6.4 0.00 0.00 0.00 52 1014.8
20200228210817 30 270 6.4 11.3 0.00 0.00 0.00 52 1014.9
20200228205817 30 292 6.4 11.3 0.00 0.00 0.00 54 1015.0
20200228204817 30 270 4.8 9.7 0.00 0.00 0.00 53 1015.2
20200228203817 30 225 3.2 6.4 0.00 0.00 0.00 52 1015.4
20200228202817 30 270 6.4 11.3 0.00 0.00 0.00 50 1015.5
20200228201817 29 292 6.4 8.0 0.00 0.00 0.00 53 1015.7
20200228200817 29 315 6.4 14.5 0.00 0.00 0.00 54 1015.9
20200228195818 29 292 8.0 12.9 0.00 0.00 0.00 53 1016.0
20200228194817 28 292 4.8 9.7 0.00 0.00 0.00 55 1016.1
20200228193817 28 337 1.6 3.2 0.00 0.00 0.00 56 1016.3
20200228192817 28 315 4.8 6.4 0.00 0.00 0.00 55 1016.4
20200228191817 28 270 1.6 4.8 0.00 0.00 0.00 56 1016.5
20200228190817 27 270 4.8 6.4 0.00 0.00 0.00 59 1016.6
20200228185818 27 292 3.2 4.8 0.00 0.00 0.00 59 1016.9
20200228184825 27 157 1.6 4.8 0.00 0.00 0.00 57 1017.1
20200228183817 27 337 3.2 4.8 0.00 0.00 0.00 59 1017.4
20200228182817 26 247 6.4 9.7 0.00 0.00 0.00 62 1017.4
20200228181817 26 315 3.2 6.4 0.00 0.00 0.00 64 1017.6
20200228180817 26 337 1.6 3.2 0.00 0.00 0.00 65 1017.6
20200228175818 25 292 4.8 6.4 0.00 0.00 0.00 65 1017.7
20200228174817 25 270 4.8 4.8 0.00 0.00 0.00 66 1017.8
20200228173817 25 0.0 1.6 0.00 0.00 0.00 67 1017.8
20200228172816 24 315 1.6 3.2 0.00 0.00 0.00 68 1017.7
20200228171817 23 292 4.8 6.4 0.00 0.00 0.00 68 1017.8
20200228170818 23 0 1.6 4.8 0.00 0.00 0.00 70 1017.9
20200228165817 22 315 1.6 3.2 0.00 0.00 0.00 71 1017.9
20200228164816 22 315 1.6 1.6 0.00 0.00 0.00 72 1017.9
20200228163816 21 0 1.6 3.2 0.00 0.00 0.00 73 1018.1
20200228162816 21 0 3.2 4.8 0.00 0.00 0.00 75 1018.0
20200228161817 21 292 3.2 4.8 0.00 0.00 0.00 76 1018.1
20200228160816 20 315 3.2 4.8 0.00 0.00 0.00 76 1018.0
20200228155818 20 315 1.6 3.2 0.00 0.00 0.00 78 1017.9
20200228154817 19 0 3.2 4.8 0.00 0.00 0.00 79 1017.7
20200228153816 18 0 1.6 1.6 0.00 0.00 0.00 84 1017.6
20200228152816 18 0 1.6 3.2 0.00 0.00 0.00 84 1017.5
20200228151816 17 0.0 0.0 0.00 0.00 0.00 86 1017.4
20200228150816 16 0.0 0.0 0.00 0.00 0.00 88 1017.4
20200228145817 15 22 1.6 1.6 0.00 0.00 0.00 89 1017.3
20200228144816 15 22 1.6 3.2 0.00 0.00 0.00 90 1017.1
20200228143816 15 22 3.2 3.2 0.00 0.00 0.00 91 1017.0
20200228142816 14 292 1.6 3.2 0.00 0.00 0.00 93 1016.9
20200228141816 13 292 1.6 3.2 0.00 0.00 0.00 93 1016.7
20200228140816 13 0.0 1.6 0.00 0.00 0.00 92 1016.5
20200228135816 13 292 1.6 1.6 0.00 0.00 0.00 92 1016.5
20200228134816 13 292 1.6 1.6 0.00 0.00 0.00 92 1016.4
20200228133816 13 0.0 0.0 0.00 0.00 0.00 92 1016.2
20200228132824 13 0.0 0.0 0.00 0.00 0.00 93 1016.0
20200228131816 12 292 1.6 1.6 0.00 0.00 0.00 93 1016.0
20200228130816 12 292 1.6 1.6 0.00 0.00 0.00 92 1016.0
20200228125841 12 292 1.6 1.6 0.00 0.00 0.00 92 1016.0
20200228124816 12 292 1.6 3.2 0.00 0.00 0.00 91 1015.9
20200228123816 13 292 1.6 3.2 0.00 0.00 0.00 92 1015.9
20200228122819 12 292 1.6 3.2 0.00 0.00 0.00 92 1015.8
20200228121816 12 0.0 1.6 0.00 0.00 0.00 92 1015.8
20200228120816 12 0.0 0.0 0.00 0.00 0.00 92 1015.7
20200228115831 12 0.0 0.0 0.00 0.00 0.00 92 1015.8
20200228114816 12 315 1.6 3.2 0.00 0.00 0.00 92 1015.8
20200228113816 13 315 3.2 3.2 0.00 0.00 0.00 92 1015.6
20200228112832 13 315 1.6 3.2 0.00 0.00 0.00 92 1015.4
20200228111816 13 0.0 0.0 0.00 0.00 0.00 93 1015.3
20200228110816 13 0.0 0.0 0.00 0.00 0.00 92 1015.4
20200228105820 13 0.0 0.0 0.00 0.00 0.00 92 1015.4
20200228104816 13 315 1.6 3.2 0.00 0.00 0.00 93 1015.4
20200228103816 13 0.0 1.6 0.00 0.00 0.00 93 1015.5
20200228102815 13 315 3.2 4.8 0.00 0.00 0.00 93 1015.6
20200228101815 13 337 1.6 3.2 0.00 0.00 0.00 93 1015.8
20200228100815 13 337 1.6 3.2 0.00 0.00 0.00 92 1015.8
20200228095815 13 0 3.2 3.2 0.00 0.00 0.00 92 1015.7
20200228094815 13 0 1.6 3.2 0.00 0.00 0.00 92 1015.8
20200228093815 13 0 1.6 3.2 0.00 0.00 0.00 92 1015.8
20200228092827 13 0 1.6 3.2 0.00 0.00 0.00 92 1015.9
20200228091815 13 0 1.6 1.6 0.00 0.00 0.00 92 1015.8
20200228090815 13 0.0 0.0 0.00 0.00 0.00 92 1016.0
20200228085815 14 0.0 1.6 0.00 0.00 0.00 92 1016.1
20200228084815 14 0.0 0.0 0.00 0.00 0.00 93 1016.3
20200228083849 13 0.0 0.0 0.00 0.00 0.00 92 1016.4
20200228082815 13 0.0 1.6 0.00 0.00 0.00 92 1016.5
20200228081815 14 0.0 1.6 0.00 0.00 0.00 92 1016.6
20200228080831 14 0.0 0.0 0.00 0.00 0.00 92 1016.7
20200228075815 14 0.0 1.6 0.00 0.00 0.00 93 1016.9
20200228074815 14 22 1.6 3.2 0.00 0.00 0.00 92 1017.0
20200228073818 14 0.0 1.6 0.00 0.00 0.00 92 1016.8
20200228072815 14 90 1.6 3.2 0.00 0.00 0.00 92 1016.9
20200228071815 14 0.0 0.0 0.00 0.00 0.00 92 1016.9